sensor_id;sensor_type;location;lat;lon;timestamp;P1;durP1;ratioP1;P2;durP2;ratioP2
7074;SDS011;3578;51.568;6.932;2022-12-04T00:01:19;41.63;;;29.10;;
7074;SDS011;3578;51.568;6.932;2022-12-04T00:03:50;47.03;;;30.60;;
7074;SDS011;3578;51.568;6.932;2022-12-04T00:06:19;50.07;;;31.83;;
7074;SDS011;3578;51.568;6.932;2022-12-04T00:08:47;44.73;;;29.67;;
7074;SDS011;3578;51.568;6.932;2022-12-04T00:11:17;47.77;;;30.67;;
7074;SDS011;3578;51.568;6.932;2022-12-04T00:13:46;50.80;;;30.27;;
7074;SDS011;3578;51.568;6.932;2022-12-04T00:16:14;47.60;;;30.90;;
7074;SDS011;3578;51.568;6.932;2022-12-04T00:18:43;45.07;;;30.07;;
7074;SDS011;3578;51.568;6.932;2022-12-04T00:21:11;45.60;;;31.23;;
7074;SDS011;3578;51.568;6.932;2022-12-04T00:23:40;44.57;;;29.60;;
7074;SDS011;3578;51.568;6.932;2022-12-04T00:26:10;47.17;;;31.03;;
7074;SDS011;3578;51.568;6.932;2022-12-04T00:28:41;44.17;;;29.63;;
7074;SDS011;3578;51.568;6.932;2022-12-04T00:31:09;43.57;;;29.50;;
7074;SDS011;3578;51.568;6.932;2022-12-04T00:33:38;48.10;;;31.80;;
7074;SDS011;3578;51.568;6.932;2022-12-04T00:36:07;46.93;;;30.30;;
7074;SDS011;3578;51.568;6.932;2022-12-04T00:38:37;44.37;;;29.60;;
7074;SDS011;3578;51.568;6.932;2022-12-04T00:41:06;48.00;;;31.93;;
7074;SDS011;3578;51.568;6.932;2022-12-04T00:43:33;46.50;;;30.40;;
7074;SDS011;3578;51.568;6.932;2022-12-04T00:46:02;43.83;;;29.90;;
7074;SDS011;3578;51.568;6.932;2022-12-04T00:48:29;45.57;;;29.60;;
7074;SDS011;3578;51.568;6.932;2022-12-04T00:50:59;54.23;;;31.77;;
7074;SDS011;3578;51.568;6.932;2022-12-04T00:53:28;44.40;;;30.37;;
7074;SDS011;3578;51.568;6.932;2022-12-04T00:55:55;46.07;;;29.43;;
7074;SDS011;3578;51.568;6.932;2022-12-04T00:58:22;47.90;;;30.17;;
7074;SDS011;3578;51.568;6.932;2022-12-04T01:00:50;50.60;;;33.17;;
7074;SDS011;3578;51.568;6.932;2022-12-04T01:03:30;49.63;;;32.50;;
7074;SDS011;3578;51.568;6.932;2022-12-04T01:05:57;45.63;;;31.40;;
7074;SDS011;3578;51.568;6.932;2022-12-04T01:08:25;42.50;;;29.03;;
7074;SDS011;3578;51.568;6.932;2022-12-04T01:10:52;46.03;;;30.63;;
7074;SDS011;3578;51.568;6.932;2022-12-04T01:13:19;48.10;;;30.60;;
7074;SDS011;3578;51.568;6.932;2022-12-04T01:15:46;51.73;;;32.30;;
7074;SDS011;3578;51.568;6.932;2022-12-04T01:18:14;48.70;;;30.10;;
7074;SDS011;3578;51.568;6.932;2022-12-04T01:20:45;47.50;;;31.67;;
7074;SDS011;3578;51.568;6.932;2022-12-04T01:23:14;46.17;;;30.80;;
7074;SDS011;3578;51.568;6.932;2022-12-04T01:25:48;45.40;;;31.50;;
7074;SDS011;3578;51.568;6.932;2022-12-04T01:28:16;46.20;;;31.03;;
7074;SDS011;3578;51.568;6.932;2022-12-04T01:30:43;44.60;;;32.43;;
7074;SDS011;3578;51.568;6.932;2022-12-04T01:33:10;49.97;;;32.60;;
7074;SDS011;3578;51.568;6.932;2022-12-04T01:35:39;46.47;;;32.60;;
7074;SDS011;3578;51.568;6.932;2022-12-04T01:38:06;51.10;;;32.27;;
7074;SDS011;3578;51.568;6.932;2022-12-04T01:40:33;49.47;;;32.60;;
7074;SDS011;3578;51.568;6.932;2022-12-04T01:43:00;42.67;;;30.50;;
7074;SDS011;3578;51.568;6.932;2022-12-04T01:45:32;48.90;;;33.37;;
7074;SDS011;3578;51.568;6.932;2022-12-04T01:48:08;49.30;;;33.67;;
7074;SDS011;3578;51.568;6.932;2022-12-04T01:50:47;49.87;;;31.83;;
7074;SDS011;3578;51.568;6.932;2022-12-04T01:53:16;47.20;;;31.57;;
7074;SDS011;3578;51.568;6.932;2022-12-04T01:55:44;46.77;;;33.33;;
7074;SDS011;3578;51.568;6.932;2022-12-04T01:58:13;49.97;;;32.90;;
7074;SDS011;3578;51.568;6.932;2022-12-04T02:00:42;49.80;;;32.53;;
7074;SDS011;3578;51.568;6.932;2022-12-04T02:03:10;45.70;;;32.53;;
7074;SDS011;3578;51.568;6.932;2022-12-04T02:05:38;47.20;;;32.60;;
7074;SDS011;3578;51.568;6.932;2022-12-04T02:08:06;51.47;;;32.90;;
7074;SDS011;3578;51.568;6.932;2022-12-04T02:10:37;46.83;;;32.83;;
7074;SDS011;3578;51.568;6.932;2022-12-04T02:13:16;44.20;;;30.30;;
7074;SDS011;3578;51.568;6.932;2022-12-04T02:15:52;45.60;;;30.30;;
7074;SDS011;3578;51.568;6.932;2022-12-04T02:18:28;49.93;;;31.97;;
7074;SDS011;3578;51.568;6.932;2022-12-04T02:21:02;51.37;;;33.90;;
7074;SDS011;3578;51.568;6.932;2022-12-04T02:23:54;48.47;;;33.13;;
7074;SDS011;3578;51.568;6.932;2022-12-04T02:26:39;47.60;;;31.73;;
7074;SDS011;3578;51.568;6.932;2022-12-04T02:29:15;48.33;;;31.10;;
7074;SDS011;3578;51.568;6.932;2022-12-04T02:31:54;43.83;;;31.83;;
7074;SDS011;3578;51.568;6.932;2022-12-04T02:34:28;45.53;;;31.77;;
7074;SDS011;3578;51.568;6.932;2022-12-04T02:37:04;45.97;;;30.37;;
7074;SDS011;3578;51.568;6.932;2022-12-04T02:39:39;45.57;;;31.20;;
7074;SDS011;3578;51.568;6.932;2022-12-04T02:42:17;46.87;;;32.57;;
7074;SDS011;3578;51.568;6.932;2022-12-04T02:44:56;42.97;;;30.73;;
7074;SDS011;3578;51.568;6.932;2022-12-04T02:47:27;49.50;;;30.90;;
7074;SDS011;3578;51.568;6.932;2022-12-04T02:49:57;52.87;;;31.90;;
7074;SDS011;3578;51.568;6.932;2022-12-04T02:52:28;52.90;;;32.17;;
7074;SDS011;3578;51.568;6.932;2022-12-04T02:55:01;48.80;;;32.23;;
7074;SDS011;3578;51.568;6.932;2022-12-04T02:57:33;47.00;;;31.77;;
7074;SDS011;3578;51.568;6.932;2022-12-04T03:00:07;50.63;;;32.53;;
7074;SDS011;3578;51.568;6.932;2022-12-04T03:02:37;43.57;;;29.40;;
7074;SDS011;3578;51.568;6.932;2022-12-04T03:05:12;45.07;;;29.00;;
7074;SDS011;3578;51.568;6.932;2022-12-04T03:07:43;46.07;;;29.77;;
7074;SDS011;3578;51.568;6.932;2022-12-04T03:10:16;44.57;;;28.93;;
7074;SDS011;3578;51.568;6.932;2022-12-04T03:12:49;44.60;;;29.13;;
7074;SDS011;3578;51.568;6.932;2022-12-04T03:15:22;44.00;;;30.00;;
7074;SDS011;3578;51.568;6.932;2022-12-04T03:17:55;48.57;;;30.57;;
7074;SDS011;3578;51.568;6.932;2022-12-04T03:20:27;41.20;;;28.43;;
7074;SDS011;3578;51.568;6.932;2022-12-04T03:23:01;42.40;;;29.33;;
7074;SDS011;3578;51.568;6.932;2022-12-04T03:25:36;41.13;;;28.30;;
7074;SDS011;3578;51.568;6.932;2022-12-04T03:28:09;45.70;;;30.17;;
7074;SDS011;3578;51.568;6.932;2022-12-04T03:30:50;40.53;;;27.53;;
7074;SDS011;3578;51.568;6.932;2022-12-04T03:33:26;44.23;;;29.37;;
7074;SDS011;3578;51.568;6.932;2022-12-04T03:36:00;43.40;;;28.33;;
7074;SDS011;3578;51.568;6.932;2022-12-04T03:41:18;39.83;;;27.47;;
7074;SDS011;3578;51.568;6.932;2022-12-04T03:43:52;38.53;;;26.43;;
7074;SDS011;3578;51.568;6.932;2022-12-04T03:46:28;38.23;;;26.57;;
7074;SDS011;3578;51.568;6.932;2022-12-04T03:49:01;39.13;;;27.67;;
7074;SDS011;3578;51.568;6.932;2022-12-04T03:51:37;39.30;;;27.00;;
7074;SDS011;3578;51.568;6.932;2022-12-04T03:54:10;36.67;;;26.50;;
7074;SDS011;3578;51.568;6.932;2022-12-04T03:56:42;43.07;;;27.60;;
7074;SDS011;3578;51.568;6.932;2022-12-04T03:59:14;33.50;;;25.50;;
7074;SDS011;3578;51.568;6.932;2022-12-04T04:01:49;39.40;;;26.87;;
7074;SDS011;3578;51.568;6.932;2022-12-04T04:04:18;38.03;;;25.97;;
7074;SDS011;3578;51.568;6.932;2022-12-04T04:06:52;36.10;;;25.67;;
7074;SDS011;3578;51.568;6.932;2022-12-04T04:09:28;35.37;;;24.87;;
7074;SDS011;3578;51.568;6.932;2022-12-04T04:12:02;36.90;;;26.10;;
7074;SDS011;3578;51.568;6.932;2022-12-04T04:14:35;35.47;;;25.80;;
7074;SDS011;3578;51.568;6.932;2022-12-04T04:17:26;35.70;;;25.83;;
7074;SDS011;3578;51.568;6.932;2022-12-04T04:20:29;34.50;;;24.47;;
7074;SDS011;3578;51.568;6.932;2022-12-04T04:23:19;37.03;;;26.13;;
7074;SDS011;3578;51.568;6.932;2022-12-04T04:26:06;38.00;;;25.53;;
7074;SDS011;3578;51.568;6.932;2022-12-04T04:28:38;34.23;;;24.77;;
7074;SDS011;3578;51.568;6.932;2022-12-04T04:31:09;34.40;;;24.70;;
7074;SDS011;3578;51.568;6.932;2022-12-04T04:33:48;33.13;;;25.10;;
7074;SDS011;3578;51.568;6.932;2022-12-04T04:36:28;31.10;;;23.57;;
7074;SDS011;3578;51.568;6.932;2022-12-04T04:39:06;30.33;;;22.90;;
7074;SDS011;3578;51.568;6.932;2022-12-04T04:41:41;37.37;;;25.07;;
7074;SDS011;3578;51.568;6.932;2022-12-04T04:44:16;35.53;;;23.43;;
7074;SDS011;3578;51.568;6.932;2022-12-04T04:46:49;34.53;;;24.57;;
7074;SDS011;3578;51.568;6.932;2022-12-04T04:49:24;36.70;;;24.90;;
7074;SDS011;3578;51.568;6.932;2022-12-04T04:51:57;33.77;;;24.10;;
7074;SDS011;3578;51.568;6.932;2022-12-04T04:54:27;38.17;;;25.50;;
7074;SDS011;3578;51.568;6.932;2022-12-04T04:56:56;32.60;;;23.97;;
7074;SDS011;3578;51.568;6.932;2022-12-04T04:59:23;35.50;;;25.90;;
7074;SDS011;3578;51.568;6.932;2022-12-04T05:01:50;36.10;;;24.70;;
7074;SDS011;3578;51.568;6.932;2022-12-04T05:04:17;32.47;;;24.47;;
7074;SDS011;3578;51.568;6.932;2022-12-04T05:06:45;36.60;;;25.00;;
7074;SDS011;3578;51.568;6.932;2022-12-04T05:09:12;34.97;;;24.43;;
7074;SDS011;3578;51.568;6.932;2022-12-04T05:11:40;34.63;;;24.70;;
7074;SDS011;3578;51.568;6.932;2022-12-04T05:14:07;36.90;;;25.90;;
7074;SDS011;3578;51.568;6.932;2022-12-04T05:16:34;33.77;;;23.67;;
7074;SDS011;3578;51.568;6.932;2022-12-04T05:19:01;36.97;;;25.73;;
7074;SDS011;3578;51.568;6.932;2022-12-04T05:21:46;35.20;;;24.50;;
7074;SDS011;3578;51.568;6.932;2022-12-04T05:24:13;33.67;;;23.40;;
7074;SDS011;3578;51.568;6.932;2022-12-04T05:26:40;31.40;;;23.30;;
7074;SDS011;3578;51.568;6.932;2022-12-04T05:29:07;31.30;;;23.20;;
7074;SDS011;3578;51.568;6.932;2022-12-04T05:31:34;32.70;;;22.67;;
7074;SDS011;3578;51.568;6.932;2022-12-04T05:34:01;32.80;;;23.90;;
7074;SDS011;3578;51.568;6.932;2022-12-04T05:36:28;30.90;;;21.80;;
7074;SDS011;3578;51.568;6.932;2022-12-04T05:38:56;29.70;;;21.10;;
7074;SDS011;3578;51.568;6.932;2022-12-04T05:41:23;28.50;;;22.00;;
7074;SDS011;3578;51.568;6.932;2022-12-04T05:43:50;32.00;;;22.67;;
7074;SDS011;3578;51.568;6.932;2022-12-04T05:46:17;29.93;;;20.87;;
7074;SDS011;3578;51.568;6.932;2022-12-04T05:48:44;30.13;;;20.70;;
7074;SDS011;3578;51.568;6.932;2022-12-04T05:51:11;31.70;;;20.90;;
7074;SDS011;3578;51.568;6.932;2022-12-04T05:53:38;29.20;;;21.73;;
7074;SDS011;3578;51.568;6.932;2022-12-04T05:56:07;28.30;;;20.80;;
7074;SDS011;3578;51.568;6.932;2022-12-04T05:58:34;29.80;;;21.87;;
7074;SDS011;3578;51.568;6.932;2022-12-04T06:01:06;30.17;;;20.40;;
7074;SDS011;3578;51.568;6.932;2022-12-04T06:03:35;29.20;;;21.40;;
7074;SDS011;3578;51.568;6.932;2022-12-04T06:06:02;32.37;;;21.00;;
7074;SDS011;3578;51.568;6.932;2022-12-04T06:08:29;31.43;;;22.70;;
7074;SDS011;3578;51.568;6.932;2022-12-04T06:10:56;28.37;;;21.17;;
7074;SDS011;3578;51.568;6.932;2022-12-04T06:13:24;27.57;;;20.60;;
7074;SDS011;3578;51.568;6.932;2022-12-04T06:15:51;27.17;;;21.20;;
7074;SDS011;3578;51.568;6.932;2022-12-04T06:18:18;33.10;;;23.03;;
7074;SDS011;3578;51.568;6.932;2022-12-04T06:20:45;28.23;;;22.60;;
7074;SDS011;3578;51.568;6.932;2022-12-04T06:23:12;32.33;;;23.90;;
7074;SDS011;3578;51.568;6.932;2022-12-04T06:25:39;34.10;;;21.70;;
7074;SDS011;3578;51.568;6.932;2022-12-04T06:28:06;32.80;;;24.27;;
7074;SDS011;3578;51.568;6.932;2022-12-04T06:30:34;26.33;;;20.83;;
7074;SDS011;3578;51.568;6.932;2022-12-04T06:33:01;31.67;;;22.60;;
7074;SDS011;3578;51.568;6.932;2022-12-04T06:35:28;33.77;;;24.77;;
7074;SDS011;3578;51.568;6.932;2022-12-04T06:37:55;30.73;;;21.90;;
7074;SDS011;3578;51.568;6.932;2022-12-04T06:40:22;39.77;;;25.57;;
7074;SDS011;3578;51.568;6.932;2022-12-04T06:42:49;30.60;;;21.77;;
7074;SDS011;3578;51.568;6.932;2022-12-04T06:45:16;28.93;;;22.70;;
7074;SDS011;3578;51.568;6.932;2022-12-04T06:47:44;32.10;;;23.73;;
7074;SDS011;3578;51.568;6.932;2022-12-04T06:50:11;39.70;;;24.43;;
7074;SDS011;3578;51.568;6.932;2022-12-04T06:52:38;30.10;;;23.43;;
7074;SDS011;3578;51.568;6.932;2022-12-04T06:55:05;31.70;;;24.07;;
7074;SDS011;3578;51.568;6.932;2022-12-04T06:57:33;32.03;;;23.50;;
7074;SDS011;3578;51.568;6.932;2022-12-04T07:00:00;27.77;;;21.97;;
7074;SDS011;3578;51.568;6.932;2022-12-04T07:02:27;33.20;;;23.17;;
7074;SDS011;3578;51.568;6.932;2022-12-04T07:04:55;35.47;;;23.10;;
7074;SDS011;3578;51.568;6.932;2022-12-04T07:07:22;29.60;;;22.03;;
7074;SDS011;3578;51.568;6.932;2022-12-04T07:09:49;34.10;;;23.17;;
7074;SDS011;3578;51.568;6.932;2022-12-04T07:12:16;27.43;;;22.07;;
7074;SDS011;3578;51.568;6.932;2022-12-04T07:14:43;29.10;;;22.10;;
7074;SDS011;3578;51.568;6.932;2022-12-04T07:17:09;30.20;;;23.60;;
7074;SDS011;3578;51.568;6.932;2022-12-04T07:19:36;29.67;;;23.20;;
7074;SDS011;3578;51.568;6.932;2022-12-04T07:22:05;31.83;;;22.77;;
7074;SDS011;3578;51.568;6.932;2022-12-04T07:24:33;31.03;;;22.37;;
7074;SDS011;3578;51.568;6.932;2022-12-04T07:27:02;30.87;;;23.70;;
7074;SDS011;3578;51.568;6.932;2022-12-04T07:29:29;33.77;;;24.23;;
7074;SDS011;3578;51.568;6.932;2022-12-04T07:31:56;33.17;;;22.87;;
7074;SDS011;3578;51.568;6.932;2022-12-04T07:34:23;31.27;;;23.40;;
7074;SDS011;3578;51.568;6.932;2022-12-04T07:36:50;34.43;;;24.07;;
7074;SDS011;3578;51.568;6.932;2022-12-04T07:39:18;29.60;;;22.80;;
7074;SDS011;3578;51.568;6.932;2022-12-04T07:41:45;30.80;;;23.43;;
7074;SDS011;3578;51.568;6.932;2022-12-04T07:44:12;29.90;;;23.10;;
7074;SDS011;3578;51.568;6.932;2022-12-04T07:46:39;29.97;;;22.60;;
7074;SDS011;3578;51.568;6.932;2022-12-04T07:49:06;29.20;;;22.40;;
7074;SDS011;3578;51.568;6.932;2022-12-04T07:51:36;31.00;;;21.73;;
7074;SDS011;3578;51.568;6.932;2022-12-04T07:54:03;35.00;;;21.93;;
7074;SDS011;3578;51.568;6.932;2022-12-04T07:56:32;30.33;;;22.73;;
7074;SDS011;3578;51.568;6.932;2022-12-04T07:58:59;29.70;;;21.20;;
7074;SDS011;3578;51.568;6.932;2022-12-04T08:01:26;30.13;;;23.67;;
7074;SDS011;3578;51.568;6.932;2022-12-04T08:03:54;25.87;;;21.80;;
7074;SDS011;3578;51.568;6.932;2022-12-04T08:06:23;31.40;;;22.73;;
7074;SDS011;3578;51.568;6.932;2022-12-04T08:08:52;32.30;;;23.17;;
7074;SDS011;3578;51.568;6.932;2022-12-04T08:11:22;25.73;;;21.07;;
7074;SDS011;3578;51.568;6.932;2022-12-04T08:13:53;23.90;;;21.30;;
7074;SDS011;3578;51.568;6.932;2022-12-04T08:16:22;29.27;;;22.07;;
7074;SDS011;3578;51.568;6.932;2022-12-04T08:18:50;28.13;;;22.70;;
7074;SDS011;3578;51.568;6.932;2022-12-04T08:21:18;27.70;;;23.43;;
7074;SDS011;3578;51.568;6.932;2022-12-04T08:23:48;30.13;;;23.67;;
7074;SDS011;3578;51.568;6.932;2022-12-04T08:26:17;27.90;;;24.43;;
7074;SDS011;3578;51.568;6.932;2022-12-04T08:28:46;33.07;;;26.47;;
7074;SDS011;3578;51.568;6.932;2022-12-04T08:31:16;33.13;;;27.27;;
7074;SDS011;3578;51.568;6.932;2022-12-04T08:33:46;40.13;;;28.53;;
7074;SDS011;3578;51.568;6.932;2022-12-04T08:36:14;32.23;;;26.50;;
7074;SDS011;3578;51.568;6.932;2022-12-04T08:38:44;31.97;;;25.80;;
7074;SDS011;3578;51.568;6.932;2022-12-04T08:41:12;29.97;;;24.63;;
7074;SDS011;3578;51.568;6.932;2022-12-04T08:43:41;27.20;;;22.73;;
7074;SDS011;3578;51.568;6.932;2022-12-04T08:46:09;32.23;;;24.77;;
7074;SDS011;3578;51.568;6.932;2022-12-04T08:48:40;28.40;;;23.90;;
7074;SDS011;3578;51.568;6.932;2022-12-04T08:51:11;29.50;;;23.07;;
7074;SDS011;3578;51.568;6.932;2022-12-04T08:53:40;28.07;;;21.90;;
7074;SDS011;3578;51.568;6.932;2022-12-04T08:56:07;30.17;;;25.10;;
7074;SDS011;3578;51.568;6.932;2022-12-04T08:58:35;28.93;;;23.60;;
7074;SDS011;3578;51.568;6.932;2022-12-04T09:01:03;30.77;;;24.87;;
7074;SDS011;3578;51.568;6.932;2022-12-04T09:03:31;28.23;;;23.37;;
7074;SDS011;3578;51.568;6.932;2022-12-04T09:06:00;25.83;;;21.43;;
7074;SDS011;3578;51.568;6.932;2022-12-04T09:08:29;28.03;;;23.60;;
7074;SDS011;3578;51.568;6.932;2022-12-04T09:11:01;29.13;;;23.60;;
7074;SDS011;3578;51.568;6.932;2022-12-04T09:13:29;29.07;;;22.97;;
7074;SDS011;3578;51.568;6.932;2022-12-04T09:15:56;28.97;;;22.20;;
7074;SDS011;3578;51.568;6.932;2022-12-04T09:18:23;26.90;;;23.20;;
7074;SDS011;3578;51.568;6.932;2022-12-04T09:20:54;25.60;;;21.17;;
7074;SDS011;3578;51.568;6.932;2022-12-04T09:23:23;28.00;;;22.03;;
7074;SDS011;3578;51.568;6.932;2022-12-04T09:25:51;24.23;;;21.23;;
7074;SDS011;3578;51.568;6.932;2022-12-04T09:28:19;28.10;;;22.73;;
7074;SDS011;3578;51.568;6.932;2022-12-04T09:30:54;28.67;;;22.63;;
7074;SDS011;3578;51.568;6.932;2022-12-04T09:33:22;28.77;;;23.07;;
7074;SDS011;3578;51.568;6.932;2022-12-04T09:35:49;33.70;;;26.23;;
7074;SDS011;3578;51.568;6.932;2022-12-04T09:38:16;30.43;;;24.67;;
7074;SDS011;3578;51.568;6.932;2022-12-04T09:40:47;30.70;;;24.00;;
7074;SDS011;3578;51.568;6.932;2022-12-04T09:43:25;33.63;;;25.70;;
7074;SDS011;3578;51.568;6.932;2022-12-04T09:46:00;27.90;;;24.23;;
7074;SDS011;3578;51.568;6.932;2022-12-04T09:48:35;33.20;;;25.37;;
7074;SDS011;3578;51.568;6.932;2022-12-04T09:51:06;34.00;;;26.50;;
7074;SDS011;3578;51.568;6.932;2022-12-04T09:53:42;29.93;;;25.50;;
7074;SDS011;3578;51.568;6.932;2022-12-04T09:56:16;32.10;;;26.40;;
7074;SDS011;3578;51.568;6.932;2022-12-04T09:58:46;32.10;;;24.40;;
7074;SDS011;3578;51.568;6.932;2022-12-04T10:01:20;29.20;;;23.27;;
7074;SDS011;3578;51.568;6.932;2022-12-04T10:03:50;31.60;;;22.77;;
7074;SDS011;3578;51.568;6.932;2022-12-04T10:06:21;31.67;;;23.77;;
7074;SDS011;3578;51.568;6.932;2022-12-04T10:08:53;34.70;;;24.60;;
7074;SDS011;3578;51.568;6.932;2022-12-04T10:11:29;32.17;;;24.13;;
7074;SDS011;3578;51.568;6.932;2022-12-04T10:14:12;26.70;;;23.10;;
7074;SDS011;3578;51.568;6.932;2022-12-04T10:17:15;34.33;;;23.60;;
7074;SDS011;3578;51.568;6.932;2022-12-04T10:19:57;29.33;;;21.57;;
7074;SDS011;3578;51.568;6.932;2022-12-04T10:22:38;28.20;;;21.50;;
7074;SDS011;3578;51.568;6.932;2022-12-04T10:25:20;29.20;;;22.63;;
7074;SDS011;3578;51.568;6.932;2022-12-04T10:27:51;27.80;;;22.23;;
7074;SDS011;3578;51.568;6.932;2022-12-04T10:30:23;29.27;;;24.30;;
7074;SDS011;3578;51.568;6.932;2022-12-04T10:32:55;33.23;;;25.17;;
7074;SDS011;3578;51.568;6.932;2022-12-04T10:35:29;33.40;;;25.47;;
7074;SDS011;3578;51.568;6.932;2022-12-04T10:37:59;32.60;;;25.63;;
7074;SDS011;3578;51.568;6.932;2022-12-04T10:40:32;31.93;;;24.60;;
7074;SDS011;3578;51.568;6.932;2022-12-04T10:43:12;37.00;;;26.93;;
7074;SDS011;3578;51.568;6.932;2022-12-04T10:45:47;37.47;;;28.13;;
7074;SDS011;3578;51.568;6.932;2022-12-04T10:48:17;36.90;;;23.87;;
7074;SDS011;3578;51.568;6.932;2022-12-04T10:50:49;34.63;;;25.17;;
7074;SDS011;3578;51.568;6.932;2022-12-04T10:53:16;34.27;;;25.03;;
7074;SDS011;3578;51.568;6.932;2022-12-04T10:55:49;33.67;;;25.13;;
7074;SDS011;3578;51.568;6.932;2022-12-04T10:58:17;37.27;;;26.00;;
7074;SDS011;3578;51.568;6.932;2022-12-04T11:00:59;34.83;;;25.20;;
7074;SDS011;3578;51.568;6.932;2022-12-04T11:03:30;31.10;;;25.33;;
7074;SDS011;3578;51.568;6.932;2022-12-04T11:05:59;30.57;;;24.30;;
7074;SDS011;3578;51.568;6.932;2022-12-04T11:08:29;33.23;;;25.70;;
7074;SDS011;3578;51.568;6.932;2022-12-04T11:11:02;29.93;;;23.87;;
7074;SDS011;3578;51.568;6.932;2022-12-04T11:13:33;32.67;;;25.57;;
7074;SDS011;3578;51.568;6.932;2022-12-04T11:16:00;33.77;;;27.43;;
7074;SDS011;3578;51.568;6.932;2022-12-04T11:18:28;32.13;;;26.10;;
7074;SDS011;3578;51.568;6.932;2022-12-04T11:20:58;31.87;;;25.80;;
7074;SDS011;3578;51.568;6.932;2022-12-04T11:23:29;31.90;;;24.90;;
7074;SDS011;3578;51.568;6.932;2022-12-04T11:25:59;29.50;;;25.87;;
7074;SDS011;3578;51.568;6.932;2022-12-04T11:28:28;30.83;;;24.63;;
7074;SDS011;3578;51.568;6.932;2022-12-04T11:30:59;28.17;;;21.60;;
7074;SDS011;3578;51.568;6.932;2022-12-04T11:33:31;26.57;;;22.33;;
7074;SDS011;3578;51.568;6.932;2022-12-04T11:36:02;30.30;;;24.93;;
7074;SDS011;3578;51.568;6.932;2022-12-04T11:38:42;36.27;;;26.47;;
7074;SDS011;3578;51.568;6.932;2022-12-04T11:41:20;29.30;;;24.73;;
7074;SDS011;3578;51.568;6.932;2022-12-04T11:43:51;32.30;;;26.37;;
7074;SDS011;3578;51.568;6.932;2022-12-04T11:46:21;31.73;;;27.63;;
7074;SDS011;3578;51.568;6.932;2022-12-04T11:48:50;33.57;;;29.50;;
7074;SDS011;3578;51.568;6.932;2022-12-04T11:51:19;33.40;;;27.17;;
7074;SDS011;3578;51.568;6.932;2022-12-04T11:53:59;34.90;;;27.00;;
7074;SDS011;3578;51.568;6.932;2022-12-04T11:56:35;29.87;;;24.90;;
7074;SDS011;3578;51.568;6.932;2022-12-04T11:59:11;27.30;;;23.87;;
7074;SDS011;3578;51.568;6.932;2022-12-04T12:02:00;30.57;;;23.40;;
7074;SDS011;3578;51.568;6.932;2022-12-04T12:04:59;28.40;;;23.90;;
7074;SDS011;3578;51.568;6.932;2022-12-04T12:07:42;26.50;;;20.60;;
7074;SDS011;3578;51.568;6.932;2022-12-04T12:10:20;22.33;;;19.53;;
7074;SDS011;3578;51.568;6.932;2022-12-04T12:12:58;22.40;;;18.73;;
7074;SDS011;3578;51.568;6.932;2022-12-04T12:15:35;23.30;;;19.87;;
7074;SDS011;3578;51.568;6.932;2022-12-04T12:18:19;26.27;;;19.93;;
7074;SDS011;3578;51.568;6.932;2022-12-04T12:21:05;21.30;;;18.73;;
7074;SDS011;3578;51.568;6.932;2022-12-04T12:23:42;24.13;;;19.83;;
7074;SDS011;3578;51.568;6.932;2022-12-04T12:26:26;21.63;;;18.43;;
7074;SDS011;3578;51.568;6.932;2022-12-04T12:29:05;21.87;;;19.13;;
7074;SDS011;3578;51.568;6.932;2022-12-04T12:31:50;22.63;;;17.37;;
7074;SDS011;3578;51.568;6.932;2022-12-04T12:34:40;22.00;;;17.30;;
7074;SDS011;3578;51.568;6.932;2022-12-04T12:37:15;19.03;;;16.87;;
7074;SDS011;3578;51.568;6.932;2022-12-04T12:39:53;18.83;;;16.37;;
7074;SDS011;3578;51.568;6.932;2022-12-04T12:42:25;21.97;;;19.13;;
7074;SDS011;3578;51.568;6.932;2022-12-04T12:44:59;22.13;;;17.13;;
7074;SDS011;3578;51.568;6.932;2022-12-04T12:47:35;23.93;;;17.43;;
7074;SDS011;3578;51.568;6.932;2022-12-04T12:50:11;23.60;;;17.10;;
7074;SDS011;3578;51.568;6.932;2022-12-04T12:52:43;20.30;;;17.87;;
7074;SDS011;3578;51.568;6.932;2022-12-04T12:55:19;21.00;;;18.60;;
7074;SDS011;3578;51.568;6.932;2022-12-04T12:57:53;24.50;;;18.67;;
7074;SDS011;3578;51.568;6.932;2022-12-04T13:00:25;25.73;;;18.53;;
7074;SDS011;3578;51.568;6.932;2022-12-04T13:02:57;23.67;;;19.77;;
7074;SDS011;3578;51.568;6.932;2022-12-04T13:05:32;25.33;;;21.30;;
7074;SDS011;3578;51.568;6.932;2022-12-04T13:08:09;27.70;;;22.53;;
7074;SDS011;3578;51.568;6.932;2022-12-04T13:10:49;24.60;;;21.70;;
7074;SDS011;3578;51.568;6.932;2022-12-04T13:13:27;25.93;;;22.50;;
7074;SDS011;3578;51.568;6.932;2022-12-04T13:15:58;24.37;;;21.50;;
7074;SDS011;3578;51.568;6.932;2022-12-04T13:18:32;23.30;;;20.80;;
7074;SDS011;3578;51.568;6.932;2022-12-04T13:21:05;25.93;;;20.90;;
7074;SDS011;3578;51.568;6.932;2022-12-04T13:23:42;26.17;;;19.70;;
7074;SDS011;3578;51.568;6.932;2022-12-04T13:26:20;22.60;;;19.07;;
7074;SDS011;3578;51.568;6.932;2022-12-04T13:29:02;22.07;;;19.00;;
7074;SDS011;3578;51.568;6.932;2022-12-04T13:31:44;24.57;;;18.80;;
7074;SDS011;3578;51.568;6.932;2022-12-04T13:37:23;21.03;;;16.30;;
7074;SDS011;3578;51.568;6.932;2022-12-04T13:45:53;20.43;;;17.70;;
7074;SDS011;3578;51.568;6.932;2022-12-04T13:48:28;20.40;;;17.90;;
7074;SDS011;3578;51.568;6.932;2022-12-04T13:51:05;23.37;;;19.10;;
7074;SDS011;3578;51.568;6.932;2022-12-04T13:54:00;20.37;;;16.80;;
7074;SDS011;3578;51.568;6.932;2022-12-04T13:56:50;20.77;;;17.47;;
7074;SDS011;3578;51.568;6.932;2022-12-04T13:59:20;21.83;;;17.23;;
7074;SDS011;3578;51.568;6.932;2022-12-04T14:02:02;19.87;;;16.57;;
7074;SDS011;3578;51.568;6.932;2022-12-04T14:04:56;21.30;;;16.17;;
7074;SDS011;3578;51.568;6.932;2022-12-04T14:07:28;18.40;;;16.40;;
7074;SDS011;3578;51.568;6.932;2022-12-04T14:09:59;18.83;;;16.93;;
7074;SDS011;3578;51.568;6.932;2022-12-04T14:12:29;19.83;;;17.30;;
7074;SDS011;3578;51.568;6.932;2022-12-04T14:15:01;18.93;;;15.80;;
7074;SDS011;3578;51.568;6.932;2022-12-04T14:17:32;20.83;;;16.70;;
7074;SDS011;3578;51.568;6.932;2022-12-04T14:20:02;18.03;;;15.87;;
7074;SDS011;3578;51.568;6.932;2022-12-04T14:22:41;17.00;;;15.30;;
7074;SDS011;3578;51.568;6.932;2022-12-04T14:25:23;21.07;;;18.80;;
7074;SDS011;3578;51.568;6.932;2022-12-04T14:28:10;18.67;;;16.70;;
7074;SDS011;3578;51.568;6.932;2022-12-04T14:31:00;21.60;;;17.07;;
7074;SDS011;3578;51.568;6.932;2022-12-04T14:33:41;17.80;;;15.83;;
7074;SDS011;3578;51.568;6.932;2022-12-04T14:36:15;23.13;;;15.70;;
7074;SDS011;3578;51.568;6.932;2022-12-04T14:38:49;19.20;;;14.80;;
7074;SDS011;3578;51.568;6.932;2022-12-04T14:41:29;18.90;;;14.90;;
7074;SDS011;3578;51.568;6.932;2022-12-04T14:43:57;15.63;;;13.80;;
7074;SDS011;3578;51.568;6.932;2022-12-04T14:46:26;22.90;;;18.07;;
7074;SDS011;3578;51.568;6.932;2022-12-04T14:49:06;20.63;;;17.33;;
7074;SDS011;3578;51.568;6.932;2022-12-04T14:51:50;20.40;;;16.80;;
7074;SDS011;3578;51.568;6.932;2022-12-04T14:54:27;19.37;;;16.10;;
7074;SDS011;3578;51.568;6.932;2022-12-04T14:57:06;19.00;;;16.93;;
7074;SDS011;3578;51.568;6.932;2022-12-04T14:59:49;23.87;;;19.13;;
7074;SDS011;3578;51.568;6.932;2022-12-04T15:02:19;22.83;;;17.40;;
7074;SDS011;3578;51.568;6.932;2022-12-04T15:04:53;22.03;;;18.20;;
7074;SDS011;3578;51.568;6.932;2022-12-04T15:07:21;19.47;;;17.30;;
7074;SDS011;3578;51.568;6.932;2022-12-04T15:09:53;23.47;;;19.13;;
7074;SDS011;3578;51.568;6.932;2022-12-04T15:12:45;25.33;;;18.93;;
7074;SDS011;3578;51.568;6.932;2022-12-04T15:15:16;28.67;;;18.60;;
7074;SDS011;3578;51.568;6.932;2022-12-04T15:17:55;25.13;;;20.03;;
7074;SDS011;3578;51.568;6.932;2022-12-04T15:20:27;25.43;;;20.87;;
7074;SDS011;3578;51.568;6.932;2022-12-04T15:22:56;24.80;;;21.13;;
7074;SDS011;3578;51.568;6.932;2022-12-04T15:25:24;28.00;;;22.37;;
7074;SDS011;3578;51.568;6.932;2022-12-04T15:28:01;29.60;;;23.97;;
7074;SDS011;3578;51.568;6.932;2022-12-04T15:30:34;30.37;;;23.77;;